This is the latest recevied weather packets stored in our database for station/object KB1YTR-1. If no packets are shown the sender has not sent any weather packets the latest 10 day(s).
| Time | Temp. | Humidity | Pressure | Rain* | Wind** | Luminosity | Snow |
|---|---|---|---|---|---|---|---|
| 1777654627 | 2.78° C | 62% | 1018.2 hPa | 0 mm | - | - | - |
| 1777653827 | 2.78° C | 62% | 1018.2 hPa | 0 mm | - | - | - |
| 1777653047 | 3.89° C | 61% | 1018.2 hPa | 0 mm | - | - | - |
| 1777652327 | 3.33° C | 62% | 1018.3 hPa | 0 mm | - | - | - |
| 1777651466 | 3.89° C | 62% | 1018.4 hPa | 0 mm | - | - | - |
| 1777650692 | 2.78° C | 63% | 1018.7 hPa | 0 mm | - | - | - |
| 1777649927 | 3.33° C | 67% | 1018.5 hPa | 0 mm | - | - | - |
| 1777649192 | 3.33° C | 65% | 1018.4 hPa | 0 mm | - | - | - |
| 1777648362 | 3.89° C | 62% | 1018.7 hPa | 0 mm | - | - | - |
| 1777647507 | 4.44° C | 60% | 1018.4 hPa | 0 mm | - | - | - |
| 1777646742 | 5° C | 54% | 1018.7 hPa | 0 mm | - | - | - |
| 1777645919 | 3.89° C | 56% | 1018.5 hPa | 0 mm | - | - | - |
| 1777645115 | 4.44° C | 56% | 1018.7 hPa | 0 mm | - | - | - |
| 1777644377 | 3.33° C | 57% | 1018.9 hPa | 0 mm | - | - | - |
| 1777643655 | 3.33° C | 58% | 1018.8 hPa | 0 mm | - | - | - |
| 1777642875 | 3.33° C | 58% | 1018.9 hPa | 0 mm | - | - | - |
| 1777642018 | 2.22° C | 62% | 1018.8 hPa | 0 mm | - | - | - |
| 1777641252 | 1.67° C | 67% | 1018.4 hPa | 0 mm | - | - | - |
| 1777640372 | 1.11° C | 71% | 1018.5 hPa | 0 mm | - | - | - |
| 1777639647 | 0° C | 78% | 1018.4 hPa | 0 mm | - | - | - |
| 1777638832 | -0.56° C | 80% | 1018.5 hPa | 0 mm | - | - | - |
| 1777637942 | -0.56° C | 81% | 1018.1 hPa | 0 mm | - | - | - |
| 1777637071 | -1.11° C | 81% | 1018.1 hPa | 0 mm | - | - | - |
| 1777636216 | -1.67° C | 80% | 1018.1 hPa | 0 mm | - | - | - |
| 1777635354 | -2.22° C | 80% | 1018 hPa | 0 mm | - | - | - |
* Rain latest hour (hover to see other rain measurements)
** Current wind speed in m/s (hover to see current wind gust speed)